Time;durP1;ratioP1;P1;durP2;ratioP2;P2;SDS_P1;SDS_P2;PMS_P1;PMS_P2;Temp;Humidity;BMP_temperature;BMP_pressure;BME280_temperature;BME280_humidity;BME280_pressure;Samples;Min_cycle;Max_cycle;Signal;HPM_P1;HPM_P2
2023/03/14 00:02:20;;;;;;;29.92;4.07;;;;;;;;;;5013165;28;20029;-70
2023/03/14 00:04:46;;;;;;;24.83;3.05;;;;;;;;;;5012918;28;20388;-70
2023/03/14 00:07:12;;;;;;;18.13;2.72;;;;;;;;;;5012845;28;20485;-72
2023/03/14 00:09:38;;;;;;;24.13;3.72;;;;;;;;;;5012830;28;20386;-72
2023/03/14 00:12:05;;;;;;;16.65;2.50;;;;;;;;;;5012750;28;20048;-72
2023/03/14 00:14:32;;;;;;;25.00;3.58;;;;;;;;;;5012826;28;20030;-72
2023/03/14 00:16:58;;;;;;;16.50;2.80;;;;;;;;;;5011353;28;20026;-73
2023/03/14 00:19:24;;;;;;;31.20;3.35;;;;;;;;;;5012578;28;20597;-72
2023/03/14 00:21:50;;;;;;;29.63;3.97;;;;;;;;;;5012426;28;20379;-71
2023/03/14 00:24:16;;;;;;;19.50;2.72;;;;;;;;;;5012513;28;20072;-71
2023/03/14 00:26:42;;;;;;;20.67;3.10;;;;;;;;;;5011254;28;20030;-71
2023/03/14 00:29:08;;;;;;;25.55;3.50;;;;;;;;;;5012249;28;20175;-71
2023/03/14 00:31:35;;;;;;;19.33;2.47;;;;;;;;;;5012544;28;20036;-71
2023/03/14 00:34:01;;;;;;;20.38;4.35;;;;;;;;;;5012280;28;20030;-72
2023/03/14 00:36:27;;;;;;;21.77;2.90;;;;;;;;;;5012379;28;20061;-73
2023/03/14 00:38:54;;;;;;;22.85;3.45;;;;;;;;;;5012336;28;20026;-72
2023/03/14 00:41:24;;;;;;;12.75;2.00;;;;;;;;;;5012135;28;20025;-73
2023/03/14 00:43:51;;;;;;;20.42;2.28;;;;;;;;;;5012273;28;20102;-74
2023/03/14 00:46:17;;;;;;;17.40;2.85;;;;;;;;;;5012271;28;20024;-73
2023/03/14 00:48:45;;;;;;;17.67;2.75;;;;;;;;;;5010847;28;20041;-73
2023/03/14 00:51:13;;;;;;;18.05;2.15;;;;;;;;;;5012040;28;20064;-73
2023/03/14 00:53:40;;;;;;;12.95;2.15;;;;;;;;;;5012144;28;20026;-73
2023/03/14 00:56:07;;;;;;;22.42;4.53;;;;;;;;;;5011381;28;20475;-72
2023/03/14 00:58:33;;;;;;;15.32;2.28;;;;;;;;;;5011920;28;20506;-73
2023/03/14 01:00:59;;;;;;;15.57;1.88;;;;;;;;;;5011860;28;20146;-71
2023/03/14 01:03:25;;;;;;;12.88;1.85;;;;;;;;;;5011789;28;20506;-72
2023/03/14 01:05:51;;;;;;;23.73;2.97;;;;;;;;;;5011970;28;20029;-72
2023/03/14 01:08:17;;;;;;;14.90;2.28;;;;;;;;;;5011865;28;20037;-72
2023/03/14 01:10:44;;;;;;;10.13;1.98;;;;;;;;;;5010392;28;20061;-72
2023/03/14 01:13:10;;;;;;;6.97;1.85;;;;;;;;;;5012024;28;20030;-77
2023/03/14 01:15:37;;;;;;;14.95;1.70;;;;;;;;;;5021482;28;20026;-84
2023/03/14 01:18:03;;;;;;;17.98;2.20;;;;;;;;;;5014962;28;20022;-76
2023/03/14 01:20:29;;;;;;;20.98;3.08;;;;;;;;;;5012750;28;20034;-74
2023/03/14 01:22:55;;;;;;;21.33;2.45;;;;;;;;;;5014407;28;20084;-75
2023/03/14 01:25:21;;;;;;;13.45;2.65;;;;;;;;;;5022433;28;20022;-77
2023/03/14 01:27:47;;;;;;;21.52;2.63;;;;;;;;;;5024030;28;20037;-79
2023/03/14 01:30:14;;;;;;;11.73;2.97;;;;;;;;;;5023074;28;20101;-78
2023/03/14 01:32:40;;;;;;;15.82;2.75;;;;;;;;;;5019170;28;20026;-76
2023/03/14 01:35:06;;;;;;;12.75;2.00;;;;;;;;;;5014125;28;20044;-76
2023/03/14 01:37:32;;;;;;;8.13;1.67;;;;;;;;;;5012963;28;20017;-78
2023/03/14 01:39:58;;;;;;;14.80;2.38;;;;;;;;;;5010087;28;20053;-75
2023/03/14 01:42:24;;;;;;;9.02;1.95;;;;;;;;;;5011586;28;20025;-74
2023/03/14 01:44:52;;;;;;;15.93;2.90;;;;;;;;;;5011640;28;20037;-75
2023/03/14 01:47:18;;;;;;;15.23;2.95;;;;;;;;;;5011603;28;20022;-75
2023/03/14 01:49:46;;;;;;;12.73;2.38;;;;;;;;;;5011288;28;20058;-74
2023/03/14 01:52:41;;;;;;;12.55;2.10;;;;;;;;;;5011613;28;20053;-74
2023/03/14 01:55:10;;;;;;;7.20;1.55;;;;;;;;;;5010203;28;20068;-73
2023/03/14 01:57:37;;;;;;;16.83;3.45;;;;;;;;;;5011305;28;20072;-74
2023/03/14 02:00:05;;;;;;;20.98;3.90;;;;;;;;;;5011098;28;20041;-73
2023/03/14 02:02:31;;;;;;;18.35;2.60;;;;;;;;;;5011390;28;20046;-73
2023/03/14 02:04:58;;;;;;;20.58;3.67;;;;;;;;;;5011130;28;20030;-75
2023/03/14 02:07:36;;;;;;;20.63;2.83;;;;;;;;;;5013330;28;20037;-75
2023/03/14 02:10:03;;;;;;;15.00;3.63;;;;;;;;;;5013942;28;20415;-75
2023/03/14 02:12:30;;;;;;;24.00;3.50;;;;;;;;;;5015278;28;20374;-73
2023/03/14 02:14:56;;;;;;;17.45;3.35;;;;;;;;;;5014972;28;20022;-73
2023/03/14 02:17:23;;;;;;;34.80;4.00;;;;;;;;;;5014876;28;20583;-74
2023/03/14 02:19:52;;;;;;;21.75;2.88;;;;;;;;;;5014942;28;20597;-75
2023/03/14 02:22:18;;;;;;;11.27;2.53;;;;;;;;;;5014921;28;20054;-77
2023/03/14 02:25:04;;;;;;;1.23;0.80;;;;;;;;;;5015041;28;20107;-74
2023/03/14 02:27:31;;;;;;;0.95;0.32;;;;;;;;;;4993509;28;20433;-76
2023/03/14 02:30:15;;;;;;;0.50;0.50;;;;;;;;;;5013503;28;20030;-74
2023/03/14 02:32:43;;;;;;;0.75;0.40;;;;;;;;;;5014843;28;20505;-75
2023/03/14 02:35:11;;;;;;;1.45;0.57;;;;;;;;;;5014626;28;20104;-72
2023/03/14 02:37:41;;;;;;;0.80;0.65;;;;;;;;;;5014516;28;20407;-72
2023/03/14 02:40:08;;;;;;;0.40;0.40;;;;;;;;;;5014537;28;20620;-71
2023/03/14 02:42:34;;;;;;;0.98;0.63;;;;;;;;;;5014549;28;20391;-71
2023/03/14 02:45:20;;;;;;;2.90;0.65;;;;;;;;;;5014626;28;20542;-73
2023/03/14 02:47:54;;;;;;;1.50;0.60;;;;;;;;;;5014150;28;20026;-72
2023/03/14 02:50:22;;;;;;;0.60;0.60;;;;;;;;;;5014436;28;20109;-71
2023/03/14 02:52:48;;;;;;;1.30;0.85;;;;;;;;;;5014255;28;20041;-70
2023/03/14 02:55:14;;;;;;;1.50;0.90;;;;;;;;;;5014360;28;20076;-71
2023/03/14 02:57:40;;;;;;;1.20;0.65;;;;;;;;;;5012937;28;20475;-71
2023/03/14 03:00:07;;;;;;;1.13;0.80;;;;;;;;;;5014118;28;20486;-70
2023/03/14 03:02:34;;;;;;;0.77;0.77;;;;;;;;;;5012753;28;20030;-71
2023/03/14 03:05:00;;;;;;;0.70;0.70;;;;;;;;;;5014118;28;20030;-70
2023/03/14 03:07:26;;;;;;;4.18;0.80;;;;;;;;;;5013862;28;20030;-71
2023/03/14 03:09:52;;;;;;;0.60;0.60;;;;;;;;;;5014059;28;20090;-71
2023/03/14 03:12:18;;;;;;;0.80;0.73;;;;;;;;;;5013989;28;20075;-71
2023/03/14 03:14:44;;;;;;;1.45;0.70;;;;;;;;;;5012699;28;20034;-72
2023/03/14 03:17:10;;;;;;;1.75;1.20;;;;;;;;;;5013700;28;20601;-72
2023/03/14 03:19:36;;;;;;;1.77;0.95;;;;;;;;;;5013136;28;20022;-71
2023/03/14 03:22:02;;;;;;;0.73;0.70;;;;;;;;;;5013466;28;20073;-71
2023/03/14 03:24:28;;;;;;;1.50;1.08;;;;;;;;;;5013730;28;20021;-71
2023/03/14 03:26:54;;;;;;;1.50;1.13;;;;;;;;;;5013836;28;20155;-72
2023/03/14 03:29:20;;;;;;;1.58;0.70;;;;;;;;;;5013497;28;20033;-71
2023/03/14 03:31:46;;;;;;;1.50;0.90;;;;;;;;;;5014012;28;20022;-72
2023/03/14 03:34:13;;;;;;;1.88;0.70;;;;;;;;;;5013563;28;20026;-72
2023/03/14 03:36:39;;;;;;;1.60;0.85;;;;;;;;;;5013566;28;20061;-72
2023/03/14 03:39:05;;;;;;;1.88;0.70;;;;;;;;;;5013127;28;20041;-72
2023/03/14 03:41:32;;;;;;;7.13;0.93;;;;;;;;;;5012124;28;20022;-73
2023/03/14 03:43:58;;;;;;;0.95;0.60;;;;;;;;;;5013452;28;20506;-73
2023/03/14 03:46:24;;;;;;;1.33;0.65;;;;;;;;;;5013198;28;20056;-73
2023/03/14 03:48:57;;;;;;;1.20;0.70;;;;;;;;;;5013217;28;20038;-74
2023/03/14 03:51:24;;;;;;;1.73;0.70;;;;;;;;;;5013230;28;20394;-74
2023/03/14 03:53:50;;;;;;;0.80;0.70;;;;;;;;;;5013219;28;20033;-74
2023/03/14 03:56:16;;;;;;;0.43;0.43;;;;;;;;;;5013089;28;20061;-75
2023/03/14 03:58:42;;;;;;;1.48;0.77;;;;;;;;;;5012947;28;20483;-76
2023/03/14 04:01:09;;;;;;;1.15;0.60;;;;;;;;;;5013014;28;20108;-76
2023/03/14 04:03:38;;;;;;;1.27;0.90;;;;;;;;;;5012993;28;20014;-75
2023/03/14 04:06:06;;;;;;;1.17;0.60;;;;;;;;;;5012977;28;20398;-74
2023/03/14 04:08:33;;;;;;;0.63;0.52;;;;;;;;;;5012926;28;20446;-76
2023/03/14 04:10:59;;;;;;;0.77;0.70;;;;;;;;;;5012833;28;20026;-76
2023/03/14 04:13:26;;;;;;;4.47;0.80;;;;;;;;;;5012803;28;20394;-76
2023/03/14 04:15:53;;;;;;;2.40;0.70;;;;;;;;;;5012631;28;20021;-76
2023/03/14 04:18:19;;;;;;;1.33;0.60;;;;;;;;;;5011564;28;20103;-75
2023/03/14 04:20:45;;;;;;;2.45;0.65;;;;;;;;;;5012785;28;20050;-76
2023/03/14 04:23:11;;;;;;;1.77;0.90;;;;;;;;;;5012597;28;20506;-77
2023/03/14 04:25:37;;;;;;;1.65;0.70;;;;;;;;;;5012594;28;20030;-76
2023/03/14 04:28:04;;;;;;;1.02;0.70;;;;;;;;;;5012436;28;20030;-76
2023/03/14 04:30:30;;;;;;;4.05;1.13;;;;;;;;;;5012478;28;20021;-76
2023/03/14 04:32:56;;;;;;;6.38;1.35;;;;;;;;;;5012340;28;20053;-76
2023/03/14 04:35:22;;;;;;;1.35;0.90;;;;;;;;;;5012416;28;20487;-76
2023/03/14 04:37:48;;;;;;;2.42;0.90;;;;;;;;;;5012438;28;20429;-77
2023/03/14 04:40:15;;;;;;;1.65;0.60;;;;;;;;;;5012255;28;20033;-77
2023/03/14 04:42:41;;;;;;;2.90;0.85;;;;;;;;;;5012360;28;20033;-76
2023/03/14 04:45:08;;;;;;;2.20;1.13;;;;;;;;;;5012361;28;20121;-76
2023/03/14 04:47:34;;;;;;;2.70;1.00;;;;;;;;;;5012264;28;20479;-77
2023/03/14 04:50:00;;;;;;;1.77;0.82;;;;;;;;;;5012313;28;20034;-76
2023/03/14 04:52:26;;;;;;;3.92;0.80;;;;;;;;;;5012016;28;20022;-78
2023/03/14 04:54:52;;;;;;;5.60;0.93;;;;;;;;;;5012583;28;20037;-77
2023/03/14 04:57:18;;;;;;;5.57;0.80;;;;;;;;;;5012221;28;20018;-79
2023/03/14 04:59:44;;;;;;;1.98;0.80;;;;;;;;;;5012094;28;20061;-78
2023/03/14 05:02:10;;;;;;;4.00;0.75;;;;;;;;;;5012121;28;20026;-77
2023/03/14 05:04:37;;;;;;;2.40;0.70;;;;;;;;;;5012301;28;20044;-76
2023/03/14 05:07:03;;;;;;;2.75;0.82;;;;;;;;;;5011937;28;20036;-75
2023/03/14 05:09:29;;;;;;;5.40;1.02;;;;;;;;;;5011815;28;20042;-76
2023/03/14 05:11:55;;;;;;;3.42;1.10;;;;;;;;;;5010390;28;20029;-76
2023/03/14 05:14:21;;;;;;;9.73;1.23;;;;;;;;;;5011980;28;20022;-76
2023/03/14 05:16:47;;;;;;;2.30;1.10;;;;;;;;;;5011663;28;20026;-76
2023/03/14 05:19:13;;;;;;;6.97;1.23;;;;;;;;;;5011857;28;20018;-77
2023/03/14 05:21:39;;;;;;;3.30;1.25;;;;;;;;;;5010230;28;20129;-77
2023/03/14 05:24:05;;;;;;;7.15;1.08;;;;;;;;;;5010584;28;20760;-77
2023/03/14 05:26:31;;;;;;;5.93;1.23;;;;;;;;;;5011799;28;20037;-75
2023/03/14 05:28:57;;;;;;;5.45;1.20;;;;;;;;;;5011639;28;20034;-77
2023/03/14 05:31:23;;;;;;;6.50;1.20;;;;;;;;;;5010864;28;20117;-77
2023/03/14 05:33:49;;;;;;;2.75;1.23;;;;;;;;;;5011994;28;20034;-76
2023/03/14 05:36:15;;;;;;;2.10;1.27;;;;;;;;;;5014465;28;20045;-77
2023/03/14 05:38:41;;;;;;;3.47;1.15;;;;;;;;;;5014946;28;20029;-76
2023/03/14 05:41:08;;;;;;;3.40;1.77;;;;;;;;;;5014274;28;20025;-75
2023/03/14 05:43:34;;;;;;;4.47;0.82;;;;;;;;;;5014293;28;20032;-76
2023/03/14 05:46:00;;;;;;;6.32;1.38;;;;;;;;;;5013769;28;20026;-76
2023/03/14 05:48:26;;;;;;;1.02;0.77;;;;;;;;;;5012918;28;20038;-77
2023/03/14 05:50:56;;;;;;;8.60;1.27;;;;;;;;;;5014276;28;20041;-76
2023/03/14 05:53:22;;;;;;;2.95;1.00;;;;;;;;;;5011824;28;20526;-77
2023/03/14 05:55:48;;;;;;;2.55;1.05;;;;;;;;;;5013099;28;20030;-78
2023/03/14 05:58:14;;;;;;;4.90;1.05;;;;;;;;;;5012450;28;20041;-78
2023/03/14 06:00:40;;;;;;;4.40;0.85;;;;;;;;;;5012034;28;20034;-77
2023/03/14 06:03:06;;;;;;;11.98;2.58;;;;;;;;;;5011339;28;20069;-75
2023/03/14 06:05:32;;;;;;;5.47;1.00;;;;;;;;;;5011657;28;20487;-76
2023/03/14 06:07:58;;;;;;;9.80;1.33;;;;;;;;;;5008753;28;20125;-75
2023/03/14 06:10:24;;;;;;;5.82;1.15;;;;;;;;;;5010465;28;20045;-76
2023/03/14 06:12:50;;;;;;;2.97;0.90;;;;;;;;;;5010545;28;20041;-76
2023/03/14 06:15:16;;;;;;;8.75;1.45;;;;;;;;;;5009834;28;20080;-78
2023/03/14 06:17:42;;;;;;;12.90;1.30;;;;;;;;;;5007431;28;20026;-78
2023/03/14 06:20:09;;;;;;;6.57;1.45;;;;;;;;;;5010407;28;20119;-77
2023/03/14 06:22:35;;;;;;;7.78;1.35;;;;;;;;;;5009644;28;20054;-77
2023/03/14 06:25:01;;;;;;;9.23;1.90;;;;;;;;;;5002809;28;20029;-78
2023/03/14 06:27:27;;;;;;;5.90;1.38;;;;;;;;;;5010328;28;20030;-77
2023/03/14 06:29:53;;;;;;;8.30;1.50;;;;;;;;;;5009973;28;20088;-76
2023/03/14 06:32:20;;;;;;;4.30;1.33;;;;;;;;;;5010651;28;20014;-78
2023/03/14 06:34:46;;;;;;;4.82;1.20;;;;;;;;;;5010542;28;20381;-78
2023/03/14 06:37:12;;;;;;;2.03;0.77;;;;;;;;;;5011427;28;20018;-78
2023/03/14 06:39:38;;;;;;;10.10;1.27;;;;;;;;;;5010212;28;20053;-79
2023/03/14 06:42:04;;;;;;;4.82;1.15;;;;;;;;;;5011065;28;20026;-79
2023/03/14 06:44:31;;;;;;;9.38;1.48;;;;;;;;;;5010818;28;20076;-79
2023/03/14 06:46:57;;;;;;;7.32;1.30;;;;;;;;;;5010929;28;20048;-78
2023/03/14 06:49:23;;;;;;;8.20;1.35;;;;;;;;;;5008999;28;20494;-79
2023/03/14 06:51:49;;;;;;;6.22;1.00;;;;;;;;;;5010862;28;20068;-80
2023/03/14 06:54:15;;;;;;;7.18;1.95;;;;;;;;;;5012565;28;20052;-80
2023/03/14 06:56:41;;;;;;;3.78;1.75;;;;;;;;;;5012846;28;20034;-79
2023/03/14 06:59:07;;;;;;;7.07;0.90;;;;;;;;;;5011528;28;20044;-77
2023/03/14 07:01:34;;;;;;;8.02;1.27;;;;;;;;;;5038318;28;20076;-78
2023/03/14 07:04:01;;;;;;;7.40;1.40;;;;;;;;;;5005909;28;20030;-79
2023/03/14 07:06:29;;;;;;;9.27;1.88;;;;;;;;;;5014083;28;20045;-78
2023/03/14 07:08:55;;;;;;;4.43;1.20;;;;;;;;;;5012777;28;20486;-79
2023/03/14 07:11:21;;;;;;;6.10;0.93;;;;;;;;;;5013883;28;20069;-78
2023/03/14 07:13:47;;;;;;;10.93;2.00;;;;;;;;;;5012074;28;20151;-78
2023/03/14 07:16:15;;;;;;;3.00;1.38;;;;;;;;;;5010534;28;20041;-79
2023/03/14 07:18:41;;;;;;;7.32;1.27;;;;;;;;;;5013928;28;20034;-78
2023/03/14 07:21:11;;;;;;;5.07;1.33;;;;;;;;;;5011943;28;20501;-79
2023/03/14 07:23:38;;;;;;;5.57;1.20;;;;;;;;;;5011480;28;20040;-78
2023/03/14 07:26:05;;;;;;;4.03;1.45;;;;;;;;;;5011889;28;20026;-79
2023/03/14 07:28:31;;;;;;;1.63;0.90;;;;;;;;;;5013661;28;20143;-78
2023/03/14 07:30:57;;;;;;;6.20;1.25;;;;;;;;;;5012693;28;20033;-79
2023/03/14 07:33:23;;;;;;;7.35;1.33;;;;;;;;;;5004398;28;20022;-78
2023/03/14 07:35:50;;;;;;;4.47;0.90;;;;;;;;;;5011996;28;20018;-78
2023/03/14 07:38:16;;;;;;;7.30;1.35;;;;;;;;;;5013492;28;20579;-78
2023/03/14 07:40:43;;;;;;;5.18;1.00;;;;;;;;;;5012958;28;20038;-78
2023/03/14 07:43:09;;;;;;;2.92;1.30;;;;;;;;;;5013537;28;20076;-79
2023/03/14 07:45:35;;;;;;;4.70;1.20;;;;;;;;;;5012074;28;20069;-79
2023/03/14 07:48:01;;;;;;;3.50;0.65;;;;;;;;;;5013370;28;20030;-79
2023/03/14 07:50:28;;;;;;;8.30;0.93;;;;;;;;;;5009360;28;20116;-79
2023/03/14 07:52:54;;;;;;;8.27;1.25;;;;;;;;;;5007891;28;20026;-80
2023/03/14 07:55:21;;;;;;;8.07;1.17;;;;;;;;;;5004624;28;20034;-82
2023/03/14 07:57:47;;;;;;;2.25;1.20;;;;;;;;;;5013440;28;20462;-78
2023/03/14 08:00:14;;;;;;;10.18;3.17;;;;;;;;;;5015662;28;20056;-78
2023/03/14 08:02:40;;;;;;;4.80;1.25;;;;;;;;;;5022490;28;20439;-79
2023/03/14 08:05:07;;;;;;;5.38;1.00;;;;;;;;;;5019615;28;20104;-73
2023/03/14 08:07:33;;;;;;;8.25;0.90;;;;;;;;;;5011157;28;20498;-76
2023/03/14 08:09:59;;;;;;;1.45;1.02;;;;;;;;;;5023597;28;20053;-77
2023/03/14 08:12:25;;;;;;;6.32;1.75;;;;;;;;;;5003689;28;20018;-77
2023/03/14 08:14:51;;;;;;;4.47;1.15;;;;;;;;;;5008403;28;20109;-76
2023/03/14 08:17:18;;;;;;;2.70;1.10;;;;;;;;;;5012841;28;20025;-78
2023/03/14 08:19:44;;;;;;;2.10;0.82;;;;;;;;;;5012167;28;20026;-77
2023/03/14 08:22:10;;;;;;;9.38;1.23;;;;;;;;;;5011187;28;20084;-77
2023/03/14 08:24:36;;;;;;;2.75;0.90;;;;;;;;;;5012244;28;20423;-77
2023/03/14 08:27:02;;;;;;;2.47;0.80;;;;;;;;;;5012808;28;20053;-74
2023/03/14 08:29:28;;;;;;;7.05;0.73;;;;;;;;;;5012322;28;20030;-75
2023/03/14 08:31:54;;;;;;;2.60;0.60;;;;;;;;;;5011537;28;20075;-77
2023/03/14 08:34:21;;;;;;;2.38;0.80;;;;;;;;;;5012626;28;20025;-75
2023/03/14 08:36:48;;;;;;;4.55;1.42;;;;;;;;;;5012433;28;20044;-75
2023/03/14 08:39:14;;;;;;;3.78;1.25;;;;;;;;;;5012381;28;20153;-77
2023/03/14 08:41:42;;;;;;;4.65;1.25;;;;;;;;;;5011105;28;20528;-77
2023/03/14 08:44:09;;;;;;;3.63;0.80;;;;;;;;;;5012296;28;20026;-76
2023/03/14 08:46:35;;;;;;;4.10;0.93;;;;;;;;;;5012545;28;20455;-78
2023/03/14 08:49:01;;;;;;;4.10;0.90;;;;;;;;;;4996286;28;20445;-77
2023/03/14 08:51:28;;;;;;;6.07;1.08;;;;;;;;;;4992905;28;20049;-77
2023/03/14 08:53:54;;;;;;;5.95;0.88;;;;;;;;;;4992698;28;20034;-78
2023/03/14 08:56:21;;;;;;;4.35;0.90;;;;;;;;;;4992361;28;20026;-77
2023/03/14 08:58:47;;;;;;;3.67;1.27;;;;;;;;;;4992065;28;20450;-77
2023/03/14 09:01:13;;;;;;;2.72;1.38;;;;;;;;;;4992225;28;20046;-76
2023/03/14 09:03:39;;;;;;;8.02;1.20;;;;;;;;;;4992280;28;20113;-76
2023/03/14 09:06:06;;;;;;;3.85;0.90;;;;;;;;;;4992333;28;20030;-77
2023/03/14 09:08:33;;;;;;;4.53;0.73;;;;;;;;;;4992322;28;20030;-78
2023/03/14 09:10:59;;;;;;;3.47;0.98;;;;;;;;;;4992274;28;20018;-78
2023/03/14 09:13:25;;;;;;;7.10;1.60;;;;;;;;;;4992133;28;20030;-77
2023/03/14 09:15:55;;;;;;;3.92;0.93;;;;;;;;;;5006000;28;20026;-76
2023/03/14 09:18:22;;;;;;;3.50;0.80;;;;;;;;;;5011549;28;20033;-76
2023/03/14 09:20:48;;;;;;;4.40;1.17;;;;;;;;;;5011743;28;20026;-77
2023/03/14 09:23:14;;;;;;;2.63;0.85;;;;;;;;;;5011475;28;20048;-76
2023/03/14 09:25:40;;;;;;;4.75;0.90;;;;;;;;;;5011712;28;20061;-77
2023/03/14 09:28:06;;;;;;;7.72;1.73;;;;;;;;;;5011606;28;20503;-78
2023/03/14 09:30:34;;;;;;;4.88;0.90;;;;;;;;;;5011563;28;20113;-77
2023/03/14 09:33:00;;;;;;;4.00;1.00;;;;;;;;;;5010915;28;20033;-76
2023/03/14 09:35:26;;;;;;;2.63;0.85;;;;;;;;;;5011897;28;20515;-77
2023/03/14 09:37:52;;;;;;;3.63;0.80;;;;;;;;;;5011857;28;20080;-78
2023/03/14 09:40:20;;;;;;;3.47;1.30;;;;;;;;;;5011999;28;20025;-77
2023/03/14 09:42:48;;;;;;;5.80;1.38;;;;;;;;;;5012146;28;20021;-77
2023/03/14 09:45:18;;;;;;;5.75;0.98;;;;;;;;;;5012457;28;20026;-74
2023/03/14 09:47:45;;;;;;;3.88;1.05;;;;;;;;;;4999717;28;20030;-75
2023/03/14 09:50:15;;;;;;;2.70;0.88;;;;;;;;;;4992028;28;20026;-75
2023/03/14 09:52:43;;;;;;;3.67;1.05;;;;;;;;;;4992281;28;20662;-75
2023/03/14 09:55:17;;;;;;;7.63;1.10;;;;;;;;;;4992037;28;20026;-75
2023/03/14 09:57:47;;;;;;;2.85;0.80;;;;;;;;;;4992615;28;20093;-74
2023/03/14 10:00:21;;;;;;;8.35;1.63;;;;;;;;;;4991941;28;20054;-74
2023/03/14 10:02:54;;;;;;;2.38;1.17;;;;;;;;;;4991800;28;20109;-74
2023/03/14 10:05:21;;;;;;;3.65;0.90;;;;;;;;;;5011205;28;20172;-74
2023/03/14 10:07:47;;;;;;;2.88;0.75;;;;;;;;;;5011287;28;20544;-74
2023/03/14 10:10:21;;;;;;;1.30;0.90;;;;;;;;;;5011247;28;20048;-75
2023/03/14 10:12:48;;;;;;;4.13;0.90;;;;;;;;;;5011133;28;20022;-76
2023/03/14 10:15:18;;;;;;;2.55;0.90;;;;;;;;;;5011429;28;20030;-75
2023/03/14 10:17:47;;;;;;;1.30;0.85;;;;;;;;;;5011376;28;20022;-75
2023/03/14 10:20:32;;;;;;;4.88;0.88;;;;;;;;;;4994142;28;20120;-74
2023/03/14 10:22:58;;;;;;;2.95;0.80;;;;;;;;;;4991263;28;20061;-75
2023/03/14 10:25:29;;;;;;;8.88;1.33;;;;;;;;;;4991752;28;20027;-75
2023/03/14 10:27:55;;;;;;;4.03;1.15;;;;;;;;;;4992748;28;20023;-74
2023/03/14 10:30:30;;;;;;;5.47;1.00;;;;;;;;;;4995264;28;20470;-74
2023/03/14 10:32:56;;;;;;;1.98;1.20;;;;;;;;;;4995308;28;20061;-75
2023/03/14 10:35:23;;;;;;;3.72;0.90;;;;;;;;;;4993632;28;20041;-74
2023/03/14 10:38:09;;;;;;;2.42;0.80;;;;;;;;;;4995152;28;20030;-75
2023/03/14 10:40:39;;;;;;;2.80;0.70;;;;;;;;;;4994795;28;20038;-75
2023/03/14 10:43:06;;;;;;;1.80;0.70;;;;;;;;;;4995063;28;20092;-74
2023/03/14 10:45:40;;;;;;;1.75;0.80;;;;;;;;;;4995010;28;20029;-74
2023/03/14 10:48:15;;;;;;;0.80;0.65;;;;;;;;;;4994960;28;20030;-75
2023/03/14 10:50:54;;;;;;;3.42;0.75;;;;;;;;;;4995069;28;20044;-74
2023/03/14 10:53:21;;;;;;;1.67;0.90;;;;;;;;;;4994155;28;20502;-74
2023/03/14 10:55:47;;;;;;;1.80;0.60;;;;;;;;;;4994613;28;20053;-75
2023/03/14 10:58:23;;;;;;;1.25;0.70;;;;;;;;;;4994745;28;20019;-76
2023/03/14 11:01:08;;;;;;;0.88;0.50;;;;;;;;;;4994732;28;20022;-76
2023/03/14 11:03:36;;;;;;;3.22;0.80;;;;;;;;;;4994413;28;20542;-76
2023/03/14 11:06:07;;;;;;;1.50;0.50;;;;;;;;;;4994752;28;20030;-77
2023/03/14 11:08:47;;;;;;;0.75;0.70;;;;;;;;;;4994519;28;20438;-79
2023/03/14 11:11:13;;;;;;;1.25;0.70;;;;;;;;;;4997863;28;20125;-78
2023/03/14 11:13:54;;;;;;;1.33;0.80;;;;;;;;;;5014039;28;20030;-79
2023/03/14 11:16:30;;;;;;;3.30;0.90;;;;;;;;;;5014054;28;20018;-79
2023/03/14 11:18:59;;;;;;;1.35;0.80;;;;;;;;;;5014082;28;20506;-78
2023/03/14 11:21:37;;;;;;;0.70;0.45;;;;;;;;;;5013518;28;20481;-78
2023/03/14 11:24:22;;;;;;;3.00;0.63;;;;;;;;;;5012514;28;20482;-78
2023/03/14 11:27:05;;;;;;;0.95;0.60;;;;;;;;;;5013875;28;20053;-78
2023/03/14 11:29:31;;;;;;;1.08;0.65;;;;;;;;;;4995708;28;20119;-77
2023/03/14 11:31:59;;;;;;;2.10;0.73;;;;;;;;;;4994229;28;20059;-78
2023/03/14 11:34:30;;;;;;;1.48;0.88;;;;;;;;;;4994111;28;20034;-78
2023/03/14 11:36:56;;;;;;;3.35;0.70;;;;;;;;;;4994233;28;20033;-77
2023/03/14 11:39:24;;;;;;;2.38;0.68;;;;;;;;;;4991842;28;20031;-78
2023/03/14 11:41:52;;;;;;;3.03;0.80;;;;;;;;;;4993990;28;20029;-78
2023/03/14 11:44:19;;;;;;;1.50;0.70;;;;;;;;;;4994094;28;20419;-79
2023/03/14 11:46:52;;;;;;;2.25;0.75;;;;;;;;;;4993484;28;20088;-77
2023/03/14 11:49:27;;;;;;;3.75;0.70;;;;;;;;;;4998532;28;20109;-77
2023/03/14 11:51:57;;;;;;;2.33;0.85;;;;;;;;;;4993927;28;20026;-77
2023/03/14 11:54:26;;;;;;;2.00;1.08;;;;;;;;;;4993707;28;20019;-77
2023/03/14 11:56:58;;;;;;;1.23;0.90;;;;;;;;;;4993757;28;20027;-77
2023/03/14 11:59:43;;;;;;;1.75;0.82;;;;;;;;;;4993719;28;20509;-77
2023/03/14 12:02:23;;;;;;;3.30;1.20;;;;;;;;;;4993547;28;20030;-77
2023/03/14 12:04:49;;;;;;;4.45;1.10;;;;;;;;;;4993606;28;20018;-76
2023/03/14 12:07:24;;;;;;;3.60;1.15;;;;;;;;;;4993047;28;20139;-77
2023/03/14 12:09:51;;;;;;;3.47;1.10;;;;;;;;;;4993507;28;20038;-77
2023/03/14 12:12:20;;;;;;;3.53;1.00;;;;;;;;;;4993398;28;20073;-77
2023/03/14 12:14:53;;;;;;;2.72;1.40;;;;;;;;;;4993558;28;20048;-77
2023/03/14 12:17:21;;;;;;;3.50;1.05;;;;;;;;;;4993057;28;20353;-77
2023/03/14 12:19:48;;;;;;;2.45;1.00;;;;;;;;;;4993020;28;20033;-77
2023/03/14 12:22:41;;;;;;;4.88;1.13;;;;;;;;;;4992985;28;20042;-74
2023/03/14 12:25:06;;;;;;;;;;;;;;;;;;4999443;28;20124;-76
2023/03/14 12:27:50;;;;;;;2.00;0.90;;;;;;;;;;4993004;28;19992;-77
2023/03/14 12:30:20;;;;;;;4.88;0.90;;;;;;;;;;4992934;28;20053;-76
2023/03/14 12:33:06;;;;;;;3.42;0.90;;;;;;;;;;4991632;28;20064;-76
2023/03/14 12:35:39;;;;;;;1.75;0.82;;;;;;;;;;4994157;28;20116;-77
2023/03/14 12:38:10;;;;;;;5.97;1.65;;;;;;;;;;4992642;28;20030;-76
2023/03/14 12:40:39;;;;;;;4.70;1.00;;;;;;;;;;4992893;28;20112;-76
2023/03/14 12:43:23;;;;;;;1.77;0.77;;;;;;;;;;4992817;28;20082;-75
2023/03/14 12:46:09;;;;;;;1.77;0.70;;;;;;;;;;4991579;28;20432;-76
2023/03/14 12:48:35;;;;;;;3.20;0.80;;;;;;;;;;4992506;28;20022;-75
2023/03/14 12:51:05;;;;;;;4.57;1.17;;;;;;;;;;4992074;28;20043;-78
2023/03/14 12:53:37;;;;;;;3.95;1.00;;;;;;;;;;5012013;28;20026;-76
2023/03/14 12:56:03;;;;;;;;;;;;;;;;;;5012900;28;20409;-76
2023/03/14 12:58:29;;;;;;;1.48;0.70;;;;;;;;;;5012341;28;20496;-76
2023/03/14 13:01:03;;;;;;;2.15;0.80;;;;;;;;;;4995774;28;20112;-74
2023/03/14 13:03:41;;;;;;;3.35;0.80;;;;;;;;;;4991125;28;20031;-74
2023/03/14 13:06:09;;;;;;;2.63;0.85;;;;;;;;;;4992408;28;20034;-74
2023/03/14 13:08:40;;;;;;;2.08;0.70;;;;;;;;;;4992095;28;20060;-74
2023/03/14 13:11:15;;;;;;;1.45;0.98;;;;;;;;;;4990877;28;20037;-74
2023/03/14 13:13:43;;;;;;;2.95;0.90;;;;;;;;;;4992210;28;20495;-76
2023/03/14 13:16:13;;;;;;;3.22;1.20;;;;;;;;;;5005441;28;20034;-74
2023/03/14 13:18:41;;;;;;;3.67;0.70;;;;;;;;;;5011556;28;20022;-74
2023/03/14 13:21:16;;;;;;;2.80;0.85;;;;;;;;;;5011643;28;20026;-74
2023/03/14 13:23:54;;;;;;;2.95;0.75;;;;;;;;;;5011584;28;20030;-75
2023/03/14 13:26:32;;;;;;;1.75;0.70;;;;;;;;;;5010229;28;20057;-75
2023/03/14 13:28:58;;;;;;;2.05;0.85;;;;;;;;;;4993078;28;20165;-74
2023/03/14 13:31:26;;;;;;;2.85;0.70;;;;;;;;;;4992141;28;20483;-75
2023/03/14 13:33:59;;;;;;;4.18;1.17;;;;;;;;;;4990657;28;20031;-75
2023/03/14 13:36:26;;;;;;;5.95;0.80;;;;;;;;;;4991680;28;20030;-75
2023/03/14 13:38:57;;;;;;;5.70;1.05;;;;;;;;;;4991952;28;20509;-75
2023/03/14 13:41:24;;;;;;;1.73;0.70;;;;;;;;;;4992047;28;20081;-76
2023/03/14 13:43:50;;;;;;;1.58;0.70;;;;;;;;;;4991641;28;20030;-75
2023/03/14 13:46:25;;;;;;;2.80;1.20;;;;;;;;;;4993068;28;20056;-74
2023/03/14 13:48:56;;;;;;;1.42;0.70;;;;;;;;;;5011366;28;20034;-74
2023/03/14 13:51:24;;;;;;;6.03;1.13;;;;;;;;;;5011338;28;20025;-76
2023/03/14 13:53:52;;;;;;;1.92;0.98;;;;;;;;;;5011266;28;20068;-75
2023/03/14 13:56:19;;;;;;;4.85;1.20;;;;;;;;;;5011306;28;20021;-73
2023/03/14 13:58:45;;;;;;;1.98;0.80;;;;;;;;;;5009897;28;20034;-72
2023/03/14 14:01:19;;;;;;;5.32;0.98;;;;;;;;;;5011264;28;20426;-73
2023/03/14 14:03:55;;;;;;;4.75;0.93;;;;;;;;;;4999976;28;20101;-73
2023/03/14 14:06:27;;;;;;;2.08;0.90;;;;;;;;;;4995616;28;20475;-74
2023/03/14 14:08:53;;;;;;;;;;;;;;;;;;4996085;28;20065;-74
2023/03/14 14:11:33;;;;;;;2.17;0.90;;;;;;;;;;4994479;28;20355;-74
2023/03/14 14:13:59;;;;;;;3.67;1.15;;;;;;;;;;4996665;28;20032;-71
2023/03/14 14:16:26;;;;;;;2.72;0.90;;;;;;;;;;4996678;28;20057;-75
2023/03/14 14:18:54;;;;;;;3.50;0.88;;;;;;;;;;4995595;28;20026;-73
2023/03/14 14:21:20;;;;;;;2.53;0.70;;;;;;;;;;5015168;28;20046;-74
2023/03/14 14:23:46;;;;;;;1.55;0.60;;;;;;;;;;5015214;28;20033;-74
2023/03/14 14:26:19;;;;;;;3.40;0.95;;;;;;;;;;5015201;28;20498;-75
2023/03/14 14:28:46;;;;;;;3.47;0.90;;;;;;;;;;5014666;28;20034;-73
2023/03/14 14:31:15;;;;;;;2.33;1.10;;;;;;;;;;5014920;28;20112;-72
2023/03/14 14:33:43;;;;;;;4.97;0.93;;;;;;;;;;5015267;28;20387;-73
2023/03/14 14:36:35;;;;;;;3.40;0.80;;;;;;;;;;5004613;28;20027;-73
2023/03/14 14:39:04;;;;;;;2.95;1.05;;;;;;;;;;4995538;28;20399;-73
2023/03/14 14:41:32;;;;;;;4.05;0.80;;;;;;;;;;4998294;28;20475;-72
2023/03/14 14:43:59;;;;;;;2.83;1.05;;;;;;;;;;5014692;28;20036;-71
2023/03/14 14:46:27;;;;;;;5.78;1.85;;;;;;;;;;5013211;28;20033;-76
2023/03/14 14:48:56;;;;;;;3.88;1.15;;;;;;;;;;5014407;28;20074;-77